Time;durP1;ratioP1;P1;durP2;ratioP2;P2;SDS_P1;SDS_P2;PMS_P1;PMS_P2;Temp;Humidity;BMP_temperature;BMP_pressure;BME280_temperature;BME280_humidity;BME280_pressure;Samples;Min_cycle;Max_cycle;Signal;HPM_P1;HPM_P2
2021/07/27 01:15:08;;;;;;;5.07;3.85;;;;;;;;;;5024914;28;20549;-73
2021/07/27 01:17:34;;;;;;;6.65;3.97;;;;;;;;;;5037871;28;20105;-73
2021/07/27 01:44:07;;;;;;;8.32;4.75;;;;;;;;;;5039983;28;20076;-73
2021/07/27 01:46:34;;;;;;;7.75;5.20;;;;;;;;;;5032724;28;20030;-72
2021/07/27 01:49:01;;;;;;;8.02;5.47;;;;;;;;;;5036110;28;20022;-72
2021/07/27 01:51:27;;;;;;;9.75;5.13;;;;;;;;;;5038800;28;20385;-72
2021/07/27 01:53:54;;;;;;;7.97;5.53;;;;;;;;;;5039185;28;20110;-72
2021/07/27 01:56:22;;;;;;;6.50;5.13;;;;;;;;;;5040362;28;20490;-72
2021/07/27 01:58:49;;;;;;;9.98;5.70;;;;;;;;;;5042586;28;20585;-75
2021/07/27 02:01:15;;;;;;;9.52;4.78;;;;;;;;;;5035585;28;20025;-76
2021/07/27 02:03:41;;;;;;;5.43;4.43;;;;;;;;;;5034403;28;20453;-76
2021/07/27 02:06:07;;;;;;;5.32;4.75;;;;;;;;;;5035718;28;20067;-75
2021/07/27 02:08:33;;;;;;;6.95;4.88;;;;;;;;;;5035250;28;20159;-75
2021/07/27 02:11:03;;;;;;;7.63;4.55;;;;;;;;;;5044943;28;20112;-76
2021/07/27 02:13:30;;;;;;;7.10;4.38;;;;;;;;;;5054298;28;20497;-76
2021/07/27 02:15:58;;;;;;;5.60;4.47;;;;;;;;;;5054671;28;20052;-76
2021/07/27 02:18:24;;;;;;;8.68;4.22;;;;;;;;;;5054934;28;20505;-75
2021/07/27 02:20:50;;;;;;;6.80;4.22;;;;;;;;;;5054242;28;20059;-76
2021/07/27 02:23:17;;;;;;;7.30;4.80;;;;;;;;;;5052975;28;20123;-75
2021/07/27 02:25:43;;;;;;;7.30;4.78;;;;;;;;;;5054525;28;20086;-75
2021/07/27 02:28:12;;;;;;;6.80;4.93;;;;;;;;;;5054314;28;20393;-76
2021/07/27 02:30:41;;;;;;;5.95;4.70;;;;;;;;;;5053565;28;20021;-77
2021/07/27 02:33:07;;;;;;;5.70;4.45;;;;;;;;;;5053213;28;20021;-77
2021/07/27 02:35:33;;;;;;;5.47;4.85;;;;;;;;;;5043796;28;20029;-76
2021/07/27 02:38:00;;;;;;;7.80;4.65;;;;;;;;;;5053869;28;20079;-76
2021/07/27 02:40:26;;;;;;;5.97;4.45;;;;;;;;;;5053539;28;20099;-76
2021/07/27 02:42:52;;;;;;;5.95;4.75;;;;;;;;;;5054175;28;20048;-77
2021/07/27 02:45:21;;;;;;;6.05;4.78;;;;;;;;;;5041887;28;20386;-75
2021/07/27 02:47:47;;;;;;;8.48;5.63;;;;;;;;;;5034308;28;20029;-75
2021/07/27 02:50:13;;;;;;;8.32;5.45;;;;;;;;;;5033394;28;20025;-76
2021/07/27 02:52:45;;;;;;;10.40;5.13;;;;;;;;;;5033480;28;20088;-76
2021/07/27 02:55:12;;;;;;;6.88;5.35;;;;;;;;;;5032461;28;20044;-76
2021/07/27 02:57:38;;;;;;;6.85;5.10;;;;;;;;;;5043097;28;20025;-75
2021/07/27 03:00:05;;;;;;;6.03;4.60;;;;;;;;;;5053230;28;20032;-75
2021/07/27 03:02:32;;;;;;;7.13;4.82;;;;;;;;;;5053878;28;20427;-75
2021/07/27 03:04:58;;;;;;;7.15;5.00;;;;;;;;;;5053659;28;20029;-76
2021/07/27 03:07:33;;;;;;;7.10;5.07;;;;;;;;;;5053443;28;20056;-76
2021/07/27 03:10:17;;;;;;;5.75;5.03;;;;;;;;;;5037983;28;20083;-75
2021/07/27 03:12:48;;;;;;;9.40;4.70;;;;;;;;;;5033636;28;20030;-76
2021/07/27 03:15:14;;;;;;;7.15;5.35;;;;;;;;;;5033172;28;20486;-76
2021/07/27 03:17:40;;;;;;;8.60;5.40;;;;;;;;;;5033870;28;20032;-76
2021/07/27 03:20:09;;;;;;;9.50;6.30;;;;;;;;;;5033331;28;20029;-75
2021/07/27 03:22:35;;;;;;;9.43;5.65;;;;;;;;;;5053189;28;20029;-77
2021/07/27 03:25:01;;;;;;;7.72;6.00;;;;;;;;;;5053468;28;20032;-75
2021/07/27 03:27:27;;;;;;;11.77;6.47;;;;;;;;;;5053608;28;20111;-75
2021/07/27 03:29:53;;;;;;;8.50;6.55;;;;;;;;;;5053116;28;20140;-76
2021/07/27 03:32:19;;;;;;;8.18;5.72;;;;;;;;;;5047026;28;20029;-76
2021/07/27 03:34:45;;;;;;;12.43;6.07;;;;;;;;;;5034374;28;20611;-76
2021/07/27 03:37:12;;;;;;;15.25;7.97;;;;;;;;;;5032519;28;20555;-76
2021/07/27 03:39:38;;;;;;;9.32;6.53;;;;;;;;;;5032719;28;20078;-75
2021/07/27 03:42:04;;;;;;;10.10;6.75;;;;;;;;;;5032840;28;20025;-76
2021/07/27 03:44:30;;;;;;;10.90;6.28;;;;;;;;;;5037264;28;20037;-75
2021/07/27 03:47:10;;;;;;;10.18;6.18;;;;;;;;;;5032968;28;20080;-75
2021/07/27 03:49:36;;;;;;;8.38;5.22;;;;;;;;;;5028554;28;20033;-74
2021/07/27 03:52:02;;;;;;;6.50;5.55;;;;;;;;;;5032014;28;20038;-75
2021/07/27 03:54:34;;;;;;;9.30;6.22;;;;;;;;;;5029915;28;20389;-75
2021/07/27 03:57:02;;;;;;;10.65;5.93;;;;;;;;;;5049433;28;20028;-76
2021/07/27 03:59:32;;;;;;;13.85;6.18;;;;;;;;;;5051864;28;20079;-75
2021/07/27 04:01:58;;;;;;;8.82;6.18;;;;;;;;;;5052779;28;20044;-75
2021/07/27 04:04:25;;;;;;;7.95;6.30;;;;;;;;;;5051293;28;20123;-75
2021/07/27 04:06:51;;;;;;;7.97;5.72;;;;;;;;;;5050870;28;20021;-75
2021/07/27 04:09:17;;;;;;;8.65;5.88;;;;;;;;;;5032158;28;20024;-76
2021/07/27 04:11:43;;;;;;;7.68;5.72;;;;;;;;;;5031418;28;20030;-75
2021/07/27 04:14:13;;;;;;;10.10;5.43;;;;;;;;;;5031886;28;20029;-75
2021/07/27 04:16:39;;;;;;;11.32;5.95;;;;;;;;;;5032554;28;20044;-75
2021/07/27 04:19:06;;;;;;;9.90;5.72;;;;;;;;;;5037502;28;20438;-75
2021/07/27 04:21:32;;;;;;;9.07;6.20;;;;;;;;;;5052181;28;20029;-75
2021/07/27 04:23:58;;;;;;;8.95;6.10;;;;;;;;;;5051818;28;20051;-75
2021/07/27 04:26:24;;;;;;;11.57;6.57;;;;;;;;;;5052331;28;20025;-76
2021/07/27 04:28:50;;;;;;;10.80;7.30;;;;;;;;;;5033320;28;20117;-78
2021/07/27 04:31:16;;;;;;;9.38;6.80;;;;;;;;;;5035087;28;20086;-77
2021/07/27 04:33:42;;;;;;;9.63;6.15;;;;;;;;;;5049170;28;20540;-77
2021/07/27 04:36:12;;;;;;;9.65;6.15;;;;;;;;;;5055685;28;20033;-78
2021/07/27 04:38:38;;;;;;;10.13;5.70;;;;;;;;;;5054340;28;20025;-77
2021/07/27 04:41:04;;;;;;;6.30;4.70;;;;;;;;;;5054968;28;20033;-77
2021/07/27 04:43:31;;;;;;;7.82;5.10;;;;;;;;;;5054765;28;20035;-77
2021/07/27 04:46:00;;;;;;;7.43;5.20;;;;;;;;;;5039310;28;20034;-77
2021/07/27 04:48:26;;;;;;;6.50;4.95;;;;;;;;;;5055959;28;20051;-77
2021/07/27 04:50:52;;;;;;;7.28;5.25;;;;;;;;;;5055383;28;20033;-78
2021/07/27 04:53:23;;;;;;;9.35;4.75;;;;;;;;;;5055461;28;20025;-78
2021/07/27 04:55:50;;;;;;;8.18;4.68;;;;;;;;;;5055773;28;20021;-76
2021/07/27 04:58:16;;;;;;;9.45;5.18;;;;;;;;;;5056158;28;20028;-77
2021/07/27 05:00:42;;;;;;;6.90;5.53;;;;;;;;;;5045458;28;20114;-77
2021/07/27 05:03:08;;;;;;;7.90;5.32;;;;;;;;;;5035979;28;20048;-76
2021/07/27 05:05:34;;;;;;;6.45;4.82;;;;;;;;;;5035878;28;20025;-78
2021/07/27 05:08:00;;;;;;;6.32;4.68;;;;;;;;;;5034564;28;20033;-72
2021/07/27 05:10:26;;;;;;;8.32;4.95;;;;;;;;;;5031306;28;20029;-72
2021/07/27 05:12:52;;;;;;;8.13;4.72;;;;;;;;;;5031634;28;20026;-72
2021/07/27 05:15:18;;;;;;;7.90;4.78;;;;;;;;;;5025198;28;20064;-74
2021/07/27 05:17:45;;;;;;;8.13;5.10;;;;;;;;;;5032247;28;20021;-71
2021/07/27 05:20:11;;;;;;;6.72;4.75;;;;;;;;;;5031673;28;20030;-71
2021/07/27 05:22:38;;;;;;;8.95;4.65;;;;;;;;;;5031984;28;20481;-72
2021/07/27 05:25:04;;;;;;;8.32;4.63;;;;;;;;;;5031088;28;20116;-72
2021/07/27 05:27:33;;;;;;;8.82;4.70;;;;;;;;;;5031724;28;20037;-72
2021/07/27 05:29:59;;;;;;;5.40;4.40;;;;;;;;;;5031450;28;20033;-73
2021/07/27 05:32:25;;;;;;;7.80;5.45;;;;;;;;;;5033757;28;20119;-72
2021/07/27 05:34:52;;;;;;;8.68;4.53;;;;;;;;;;5035865;28;20022;-73
2021/07/27 05:37:18;;;;;;;4.72;3.63;;;;;;;;;;5035876;28;20017;-73
2021/07/27 05:39:44;;;;;;;5.88;3.20;;;;;;;;;;5035268;28;20436;-73
2021/07/27 05:42:10;;;;;;;5.53;3.58;;;;;;;;;;5050893;28;20048;-72
2021/07/27 05:44:37;;;;;;;7.97;3.63;;;;;;;;;;5049742;28;20220;-72
2021/07/27 05:47:03;;;;;;;6.80;4.28;;;;;;;;;;5036476;28;20644;-72
2021/07/27 05:49:30;;;;;;;4.60;3.03;;;;;;;;;;5042576;28;20025;-72
2021/07/27 05:51:56;;;;;;;4.93;2.95;;;;;;;;;;5056974;28;20489;-72
2021/07/27 05:54:24;;;;;;;5.90;3.15;;;;;;;;;;5051787;28;20088;-72
2021/07/27 05:56:50;;;;;;;5.63;2.92;;;;;;;;;;5034133;28;20033;-73
2021/07/27 05:59:16;;;;;;;4.22;2.63;;;;;;;;;;5032877;28;20028;-73
2021/07/27 06:01:43;;;;;;;7.07;3.15;;;;;;;;;;5038880;28;20021;-72
2021/07/27 06:04:09;;;;;;;6.15;2.88;;;;;;;;;;5050655;28;20022;-72
2021/07/27 06:06:35;;;;;;;8.50;2.60;;;;;;;;;;5035671;28;20033;-73
2021/07/27 06:09:03;;;;;;;3.25;2.45;;;;;;;;;;5033898;28;20426;-73
2021/07/27 06:11:30;;;;;;;3.47;2.50;;;;;;;;;;5034884;28;20025;-73
2021/07/27 06:13:56;;;;;;;3.85;2.72;;;;;;;;;;5034518;28;20039;-73
2021/07/27 06:16:22;;;;;;;4.80;2.70;;;;;;;;;;5034404;28;20036;-73
2021/07/27 06:18:48;;;;;;;5.28;2.95;;;;;;;;;;5035619;28;20026;-74
2021/07/27 06:21:14;;;;;;;3.30;2.30;;;;;;;;;;5035673;28;20021;-74
2021/07/27 06:23:40;;;;;;;4.75;2.55;;;;;;;;;;5053548;28;20478;-74
2021/07/27 06:26:06;;;;;;;3.55;2.40;;;;;;;;;;5042077;28;20033;-73
2021/07/27 06:28:33;;;;;;;5.85;2.67;;;;;;;;;;5032032;28;20029;-71
2021/07/27 06:30:59;;;;;;;6.07;2.75;;;;;;;;;;5033085;28;20041;-73
2021/07/27 06:33:25;;;;;;;5.05;2.88;;;;;;;;;;5033289;28;20044;-72
2021/07/27 06:36:00;;;;;;;3.92;2.72;;;;;;;;;;5037277;28;20093;-73
2021/07/27 06:38:26;;;;;;;4.22;2.58;;;;;;;;;;5046463;28;20040;-73
2021/07/27 06:40:52;;;;;;;5.03;3.00;;;;;;;;;;5053004;28;20029;-73
2021/07/27 06:43:18;;;;;;;4.50;2.80;;;;;;;;;;5053093;28;20481;-73
2021/07/27 06:45:51;;;;;;;3.20;2.30;;;;;;;;;;5036566;28;20045;-73
2021/07/27 06:48:17;;;;;;;4.30;3.08;;;;;;;;;;5033103;28;20026;-73
2021/07/27 06:50:43;;;;;;;3.97;2.63;;;;;;;;;;5050937;28;20109;-73
2021/07/27 06:53:09;;;;;;;5.13;2.95;;;;;;;;;;5053104;28;20025;-73
2021/07/27 06:55:35;;;;;;;3.92;2.50;;;16.30;99.90;;;;;;5053125;28;20434;-72
2021/07/27 06:58:01;;;;;;;6.40;2.80;;;;;;;;;;5052834;28;20033;-73
2021/07/27 07:00:27;;;;;;;5.38;2.75;;;;;;;;;;5050985;28;20025;-73
2021/07/27 07:02:52;;;;;;;4.93;2.67;;;;;;;;;;5051315;28;20503;-73
2021/07/27 07:05:18;;;;;;;4.65;3.00;;;;;;;;;;5051796;28;20044;-73
2021/07/27 07:07:44;;;;;;;3.97;2.88;;;;;;;;;;5033144;28;20124;-73
2021/07/27 07:10:11;;;;;;;7.55;2.80;;;;;;;;;;5032371;28;20148;-73
2021/07/27 07:12:37;;;;;;;4.85;2.40;;;;;;;;;;5032869;28;20100;-74
2021/07/27 07:15:03;;;;;;;2.88;2.35;;;;;;;;;;5032762;28;20544;-72
2021/07/27 07:17:29;;;;;;;4.07;2.70;;;;;;;;;;5051673;28;20431;-73
2021/07/27 07:19:56;;;;;;;4.63;2.90;;;;;;;;;;5051976;28;20037;-73
2021/07/27 07:22:22;;;;;;;3.15;2.25;;;;;;;;;;5052557;28;20082;-72
2021/07/27 07:24:48;;;;;;;5.60;3.05;;;;;;;;;;5052749;28;20028;-73
2021/07/27 07:27:14;;;;;;;5.30;2.85;;;;;;;;;;5049162;28;20025;-73
2021/07/27 07:29:40;;;;;;;5.90;2.78;;;;;;;;;;5031946;28;20034;-73
2021/07/27 07:32:06;;;;;;;6.07;3.08;;;;;;;;;;5031218;28;20049;-73
2021/07/27 07:34:32;;;;;;;5.15;2.97;;;;;;;;;;5031410;28;20057;-73
2021/07/27 07:36:59;;;;;;;4.40;2.75;;;;;;;;;;5032562;28;20028;-74
2021/07/27 07:39:26;;;;;;;5.22;2.83;;;;;;;;;;5032379;28;20044;-73
2021/07/27 07:41:52;;;;;;;5.50;2.97;;;;;;;;;;5043676;28;20017;-74
2021/07/27 07:44:18;;;;;;;5.80;2.80;;;;;;;;;;5047559;28;20466;-73
2021/07/27 07:46:44;;;;;;;5.90;2.95;;;;;;;;;;5042662;28;20021;-75
2021/07/27 07:49:10;;;;;;;4.93;2.45;;;;;;;;;;5050527;28;20481;-73
2021/07/27 07:51:41;;;;;;;4.97;3.05;;;;;;;;;;5052248;28;20040;-74
2021/07/27 07:54:07;;;;;;;4.30;2.97;;;;;;;;;;5051818;28;20036;-73
2021/07/27 07:56:32;;;;;;;5.18;2.90;;;;;;;;;;5032355;28;20455;-73
2021/07/27 07:58:58;;;;;;;4.05;2.80;;;;;;;;;;5032106;28;20033;-73
2021/07/27 08:01:25;;;;;;;6.75;2.90;;;;;;;;;;5032182;28;20029;-73
2021/07/27 08:03:51;;;;;;;4.78;3.13;;;;;;;;;;5032418;28;20021;-72
2021/07/27 08:06:17;;;;;;;5.78;2.95;;;;;;;;;;5032170;28;20025;-72
2021/07/27 08:08:43;;;;;;;4.28;2.85;;;;;;;;;;5044228;28;20041;-73
2021/07/27 08:11:12;;;;;;;4.22;2.80;;;;;;;;;;5051224;28;20041;-73
2021/07/27 08:13:38;;;;;;;3.67;2.55;;;;;;;;;;5051896;28;20079;-73
2021/07/27 08:16:08;;;;;;;3.92;2.60;;;;;;;;;;5032259;28;20096;-73
2021/07/27 08:18:34;;;;;;;4.40;2.83;;;;;;;;;;5030549;28;20055;-73
2021/07/27 08:21:00;;;;;;;6.03;2.90;;;;;;;;;;5048381;28;20040;-76
2021/07/27 08:23:26;;;;;;;4.43;2.90;;;;;;;;;;5050256;28;20036;-76
2021/07/27 08:25:52;;;;;;;5.28;3.58;;;;;;;;;;5051905;28;20474;-76
2021/07/27 08:28:18;;;;;;;4.35;3.25;;;;;;;;;;5051853;28;20064;-76
2021/07/27 08:30:44;;;;;;;5.45;3.20;;;;;;;;;;5033175;28;20083;-76
2021/07/27 08:33:10;;;;;;;3.50;2.55;;;;;;;;;;5049508;28;20036;-76
2021/07/27 08:44:49;;;;;;;4.90;3.00;;;;;;;;;;5029675;28;20102;-76
2021/07/27 08:47:15;;;;;;;6.15;3.40;;;;;;;;;;5036768;28;20040;-75
2021/07/27 08:49:41;;;;;;;5.47;3.20;;;;;;;;;;5010228;28;20057;-75
2021/07/27 08:52:21;;;;;;;4.47;2.97;;;;;;;;;;5033145;28;20036;-75
2021/07/27 08:54:47;;;;;;;4.25;3.15;;;;;;;;;;5046327;28;20505;-75
2021/07/27 08:57:14;;;;;;;6.32;3.60;;;;;;;;;;5047615;28;20115;-75
2021/07/27 08:59:40;;;;;;;4.82;3.53;;;;;;;;;;5048318;28;20482;-75
2021/07/27 09:08:16;;;;;;;5.20;3.15;;;;;;;;;;5034930;28;20029;-75
2021/07/27 09:10:43;;;;;;;4.88;3.33;;;;;;;;;;5034676;28;20029;-75
2021/07/27 09:13:13;;;;;;;5.22;2.80;;;;;;;;;;5039786;28;20097;-75
2021/07/27 09:15:44;;;;;;;4.18;3.40;;;;;;;;;;5039062;28;20367;-76
2021/07/27 09:18:17;;;;;;;5.55;3.42;;;;;;;;;;5035454;28;20082;-76
2021/07/27 09:20:47;;;;;;;4.22;3.30;;;;;;;;;;5017231;28;20507;-77
2021/07/27 09:23:14;;;;;;;4.70;3.33;;;;;;;;;;5040720;28;20075;-76
2021/07/27 09:26:00;;;;;;;7.60;3.55;;;;;;;;;;5054793;28;20027;-75
2021/07/27 09:28:27;;;;;;;4.30;3.30;;;;;;;;;;5054746;28;20032;-76
2021/07/27 09:30:57;;;;;;;5.35;3.95;;;;;;;;;;5052815;28;20090;-76
2021/07/27 09:33:28;;;;;;;5.25;3.72;;;;;;;;;;5053315;28;20086;-76
2021/07/27 09:35:54;;;;;;;6.35;3.92;;;;;;;;;;5053152;28;20025;-76
2021/07/27 09:38:20;;;;;;;8.45;4.43;;;;;;;;;;5055136;28;20033;-76
2021/07/27 09:40:50;;;;;;;5.00;3.72;;;;;;;;;;5054100;28;20029;-75
2021/07/27 09:43:17;;;;;;;4.72;3.35;;;;;;;;;;5054502;28;20017;-76
2021/07/27 09:45:45;;;;;;;4.90;3.65;;;;;;;;;;5038926;28;20025;-75
2021/07/27 09:48:13;;;;;;;5.10;3.60;;;;;;;;;;5036268;28;20033;-75
2021/07/27 09:50:39;;;;;;;6.00;3.70;;;;;;;;;;5032608;28;20026;-75
2021/07/27 09:53:05;;;;;;;4.85;3.40;;;;;;;;;;5034650;28;20045;-76
2021/07/27 09:55:31;;;;;;;5.63;3.40;;;21.50;99.90;;;;;;5034456;28;20483;-76
2021/07/27 09:58:00;;;;;;;7.68;3.60;;;27.00;99.90;;;;;;5034492;28;20544;-76
2021/07/27 10:00:26;;;;;;;5.95;3.88;;;26.60;99.90;;;;;;5033612;28;20131;-75
2021/07/27 10:02:52;;;;;;;5.57;3.83;;;26.40;99.90;;;;;;5032612;28;20029;-75
2021/07/27 10:05:26;;;;;;;4.55;3.55;;;26.30;99.90;;;;;;5053331;28;20406;-75
2021/07/27 10:07:56;;;;;;;5.18;3.50;;;26.20;99.90;;;;;;5049863;28;20068;-77
2021/07/27 10:10:37;;;;;;;4.78;3.38;;;26.20;99.90;;;;;;5032402;28;20347;-76
2021/07/27 10:13:07;;;;;;;4.72;3.40;;;26.20;99.90;;;;;;5034078;28;20429;-77
2021/07/27 10:15:39;;;;;;;4.97;3.72;;;26.20;99.90;;;;;;5033798;28;20510;-76
2021/07/27 10:18:04;;;;;;;7.20;3.65;;;25.90;99.90;;;;;;5033393;28;20053;-75
2021/07/27 10:20:30;;;;;;;6.57;4.00;;;25.70;99.90;;;;;;5033303;28;20065;-75
2021/07/27 10:22:56;;;;;;;6.85;3.38;;;25.80;99.90;;;;;;5052491;28;20041;-75
2021/07/27 10:25:21;;;;;;;5.22;3.50;;;25.90;99.90;;;;;;5038184;28;20079;-75
2021/07/27 10:27:55;;;;;;;3.80;3.20;;;26.10;99.90;;;;;;5029496;28;20040;-78
2021/07/27 10:30:35;;;;;;;6.97;3.42;;;26.60;99.90;;;;;;5033916;28;20033;-76
2021/07/27 10:33:05;;;;;;;4.70;3.55;;;27.00;99.80;;;;;;5034751;28;20025;-78
2021/07/27 10:35:34;;;;;;;4.63;3.50;;;27.30;98.30;;;;;;5032816;28;20029;-77
2021/07/27 10:38:11;;;;;;;4.63;3.47;;;27.50;97.40;;;;;;5036636;28;20029;-78
2021/07/27 10:40:36;;;;;;;6.32;3.75;;;27.10;96.50;;;;;;5015915;28;20367;-78
2021/07/27 10:43:07;;;;;;;6.60;3.78;;;28.00;96.70;;;;;;5032372;28;20032;-77
2021/07/27 10:45:34;;;;;;;5.85;4.07;;;27.90;95.50;;;;;;5033152;28;20022;-76
2021/07/27 10:48:00;;;;;;;4.40;3.40;;;28.10;95.70;;;;;;5033370;28;20033;-76
2021/07/27 10:50:31;;;;;;;4.43;3.30;;;28.00;95.00;;;;;;5041237;28;20041;-77
2021/07/27 10:53:12;;;;;;;5.18;3.17;;;27.60;95.00;;;;;;5053286;28;20056;-77
2021/07/27 10:55:39;;;;;;;6.93;3.05;;;;;;;;;;5053050;28;20447;-77
2021/07/27 10:58:17;;;;;;;4.45;3.05;;;27.60;96.30;;;;;;5049622;28;20163;-77
2021/07/27 11:00:43;;;;;;;4.53;3.53;;;;;;;;;;5031159;28;20028;-77
2021/07/27 11:03:09;;;;;;;5.88;3.17;;;;;;;;;;5033013;28;20087;-77
2021/07/27 11:05:36;;;;;;;6.20;3.20;;;;;;;;;;5032227;28;20021;-77
2021/07/27 11:08:02;;;;;;;4.88;2.97;;;;;;;;;;5032026;28;20030;-77
2021/07/27 11:10:29;;;;;;;3.83;3.00;;;;;;;;;;5032223;28;20068;-77
2021/07/27 11:12:57;;;;;;;4.63;3.42;;;;;;;;;;5030382;28;20236;-77
2021/07/27 11:15:25;;;;;;;5.72;3.33;;;;;;;;;;5031204;28;20049;-77
2021/07/27 11:17:51;;;;;;;6.05;3.42;;;;;;;;;;5031818;28;20026;-76
2021/07/27 11:20:19;;;;;;;5.80;3.10;;;;;;;;;;5031470;28;20394;-77
2021/07/27 11:22:50;;;;;;;3.70;2.83;;;27.70;94.50;;;;;;5027061;28;20029;-77
2021/07/27 11:25:19;;;;;;;4.55;3.20;;;28.30;96.20;;;;;;5011356;28;20030;-77
2021/07/27 11:27:46;;;;;;;4.28;3.10;;;28.80;94.20;;;;;;5031525;28;20498;-76
2021/07/27 11:30:13;;;;;;;7.68;3.20;;;29.10;93.40;;;;;;5030621;28;20025;-76
2021/07/27 11:32:49;;;;;;;6.75;3.13;;;29.60;91.90;;;;;;5028422;28;20048;-77
2021/07/27 11:35:22;;;;;;;4.85;3.83;;;29.70;91.90;;;;;;5029614;28;20478;-77
2021/07/27 11:38:09;;;;;;;4.93;3.20;;;29.70;91.80;;;;;;5008870;28;20113;-77
2021/07/27 11:40:35;;;;;;;7.50;3.08;;;29.50;91.20;;;;;;5029034;28;20092;-77
2021/07/27 11:43:09;;;;;;;4.10;3.33;;;29.40;91.80;;;;;;5031456;28;20029;-77
2021/07/27 11:45:37;;;;;;;5.20;3.08;;;29.30;91.90;;;;;;5029745;28;20558;-77
2021/07/27 11:48:04;;;;;;;7.45;4.47;;;28.80;90.90;;;;;;5034172;28;20037;-76
2021/07/27 11:50:32;;;;;;;4.57;3.10;;;29.00;91.20;;;;;;5031041;28;20048;-76
2021/07/27 11:53:00;;;;;;;5.28;3.67;;;29.40;89.60;;;;;;5030858;28;20036;-77
2021/07/27 11:55:30;;;;;;;4.32;3.15;;;29.70;88.70;;;;;;5031083;28;20394;-77
2021/07/27 11:57:56;;;;;;;4.57;3.30;;;29.80;89.00;;;;;;5031050;28;20026;-76
2021/07/27 12:00:22;;;;;;;4.55;3.17;;;30.20;86.70;;;;;;5027286;28;20049;-76
2021/07/27 12:02:47;;;;;;;4.38;3.35;;;30.70;87.80;;;;;;5031324;28;20025;-77
2021/07/27 12:05:13;;;;;;;4.13;3.10;;;31.10;84.20;;;;;;5031192;28;20025;-77
2021/07/27 12:07:39;;;;;;;4.95;3.17;;;30.80;83.20;;;;;;5030774;28;20402;-77
2021/07/27 12:10:08;;;;;;;4.68;3.00;;;30.70;83.50;;;;;;5029810;28;20083;-77
2021/07/27 12:12:34;;;;;;;6.28;3.40;;;30.80;85.10;;;;;;5034252;28;20021;-77
2021/07/27 12:15:00;;;;;;;3.88;3.13;;;31.00;83.30;;;;;;5031014;28;20120;-77
2021/07/27 12:17:26;;;;;;;4.43;3.13;;;30.80;82.20;;;;;;5030939;28;20538;-78
2021/07/27 12:19:52;;;;;;;4.57;3.42;;;30.80;79.40;;;;;;5026393;28;20032;-76
2021/07/27 12:22:17;;;;;;;5.03;3.67;;;30.70;79.30;;;;;;5030449;28;20033;-76
2021/07/27 12:24:43;;;;;;;4.35;3.30;;;30.30;80.20;;;;;;5026675;28;20029;-76
2021/07/27 12:27:10;;;;;;;6.35;3.13;;;30.50;80.80;;;;;;5030791;28;20026;-77
2021/07/27 12:29:36;;;;;;;4.13;3.22;;;30.50;76.30;;;;;;5027536;28;20059;-76
2021/07/27 12:32:02;;;;;;;4.05;3.17;;;30.40;76.70;;;;;;5030800;28;20025;-78
2021/07/27 12:34:27;;;;;;;7.00;3.60;;;30.10;76.30;;;;;;5031113;28;20017;-77
2021/07/27 12:36:56;;;;;;;4.95;3.35;;;30.10;75.90;;;;;;5030710;28;20478;-77
2021/07/27 12:39:25;;;;;;;4.68;3.35;;;30.40;75.80;;;;;;5026480;28;21302;-77
2021/07/27 12:41:52;;;;;;;4.65;3.28;;;30.90;77.30;;;;;;5028279;28;20037;-76
2021/07/27 12:44:18;;;;;;;5.30;3.63;;;31.20;73.70;;;;;;5027930;28;20025;-76
2021/07/27 12:46:44;;;;;;;5.10;3.80;;;30.60;73.80;;;;;;5031077;28;20510;-77
2021/07/27 12:49:13;;;;;;;4.72;3.60;;;30.60;74.20;;;;;;5045831;28;20443;-77
2021/07/27 12:51:40;;;;;;;4.63;3.20;;;30.70;73.90;;;;;;5051031;28;20513;-78
2021/07/27 12:54:07;;;;;;;4.75;3.35;;;31.40;72.60;;;;;;5051357;28;20378;-78
2021/07/27 12:56:39;;;;;;;3.70;3.30;;;31.80;69.80;;;;;;5051758;28;20032;-76
2021/07/27 12:59:06;;;;;;;4.20;3.15;;;32.30;69.90;;;;;;5035012;28;20026;-76
2021/07/27 13:01:33;;;;;;;5.68;3.58;;;32.40;70.30;;;;;;5029948;28;20177;-77
2021/07/27 13:03:59;;;;;;;4.85;4.00;;;32.70;70.50;;;;;;5045868;28;20028;-77
2021/07/27 13:06:25;;;;;;;5.32;3.30;;;33.10;67.80;;;;;;5051123;28;20493;-76
2021/07/27 13:08:51;;;;;;;3.58;3.25;;;33.10;68.50;;;;;;5035444;28;20041;-77
2021/07/27 13:11:16;;;;;;;3.65;3.22;;;33.10;69.70;;;;;;5029242;28;20129;-76
2021/07/27 13:13:42;;;;;;;6.18;3.70;;;32.70;69.40;;;;;;5030780;28;20495;-77
2021/07/27 13:16:07;;;;;;;6.22;3.65;;;32.20;69.10;;;;;;5029507;28;20045;-76
2021/07/27 13:18:34;;;;;;;7.68;3.75;;;31.70;70.10;;;;;;5041280;28;20572;-78
2021/07/27 13:21:01;;;;;;;4.40;3.33;;;31.50;72.50;;;;;;5050550;28;20393;-77
2021/07/27 13:23:26;;;;;;;4.80;3.55;;;31.60;71.80;;;;;;5039952;28;20553;-77
2021/07/27 13:25:52;;;;;;;3.85;3.50;;;32.00;71.60;;;;;;5030905;28;20108;-77
2021/07/27 13:28:17;;;;;;;4.35;3.30;;;31.90;71.10;;;;;;5040014;28;20112;-77
2021/07/27 13:30:43;;;;;;;7.82;3.75;;;31.40;72.30;;;;;;5048787;28;20115;-77
2021/07/27 13:33:09;;;;;;;6.97;3.90;;;31.10;71.10;;;;;;5024559;28;20704;-77
2021/07/27 13:35:35;;;;;;;7.38;4.13;;;31.10;72.60;;;;;;5029432;28;20087;-76
2021/07/27 13:38:00;;;;;;;4.20;3.80;;;30.80;73.20;;;;;;5037793;28;20703;-77
2021/07/27 13:40:26;;;;;;;5.00;3.45;;;31.10;72.10;;;;;;5050450;28;20108;-77
2021/07/27 13:42:52;;;;;;;4.90;3.45;;;31.00;72.70;;;;;;5043506;28;20029;-77
2021/07/27 13:45:18;;;;;;;3.88;3.05;;;30.70;73.90;;;;;;5030713;28;20441;-78
2021/07/27 13:47:44;;;;;;;5.90;3.78;;;30.60;73.10;;;;;;5035255;28;20025;-77
2021/07/27 13:50:10;;;;;;;4.07;3.15;;;30.40;73.50;;;;;;5050018;28;20516;-77
2021/07/27 13:52:35;;;;;;;5.22;3.10;;;30.30;73.70;;;;;;5047487;28;20038;-77
2021/07/27 13:55:01;;;;;;;6.20;3.35;;;29.60;74.40;;;;;;5034256;28;20068;-77
2021/07/27 13:57:27;;;;;;;6.72;3.60;;;29.90;76.10;;;;;;5036545;28;22186;-77
2021/07/27 13:59:53;;;;;;;5.50;3.90;;;30.00;76.40;;;;;;5039855;28;20057;-77
2021/07/27 14:02:18;;;;;;;6.82;3.70;;;30.10;75.20;;;;;;5033357;28;20072;-77
2021/07/27 14:04:44;;;;;;;4.70;3.53;;;30.10;74.40;;;;;;5054267;28;20055;-77
2021/07/27 14:07:11;;;;;;;6.25;3.63;;;29.90;76.50;;;;;;5056064;28;20393;-78
2021/07/27 14:09:37;;;;;;;6.78;4.30;;;30.40;75.90;;;;;;5033402;28;20104;-79
2021/07/27 14:12:03;;;;;;;6.15;3.60;;;30.00;74.50;;;;;;5034758;28;20029;-77
2021/07/27 14:14:29;;;;;;;6.78;3.70;;;30.00;75.60;;;;;;5032975;28;20060;-77
2021/07/27 14:16:55;;;;;;;7.28;3.88;;;30.10;75.40;;;;;;5034243;28;20034;-76
2021/07/27 14:19:22;;;;;;;4.78;3.42;;;;;;;;;;5051186;28;20103;-77
2021/07/27 14:21:48;;;;;;;5.18;3.63;;;;;;;;;;5054941;28;20380;-77
2021/07/27 14:24:15;;;;;;;4.95;3.50;;;31.40;76.20;;;;;;5037821;28;20414;-77
2021/07/27 14:26:41;;;;;;;5.43;3.33;;;34.30;68.60;;;;;;5035068;28;20025;-77
2021/07/27 14:29:07;;;;;;;4.50;2.95;;;34.80;68.20;;;;;;5049380;28;20040;-77
2021/07/27 14:31:32;;;;;;;4.72;3.17;;;;;;;;;;5053984;28;20028;-76
2021/07/27 14:33:59;;;;;;;7.57;3.42;;;;;;;;;;5038563;28;20038;-76
2021/07/27 14:36:25;;;;;;;7.32;3.83;;;;;;;;;;5034606;28;20026;-76
2021/07/27 14:38:51;;;;;;;5.93;3.05;;;;;;;;;;5046876;28;20116;-77
2021/07/27 14:41:17;;;;;;;6.95;3.28;;;;;;;;;;5053345;28;20025;-76
2021/07/27 14:43:43;;;;;;;5.63;3.35;;;;;;;;;;5051573;28;20044;-77
2021/07/27 14:46:09;;;;;;;6.07;3.45;;;;;;;;;;5034116;28;20517;-76
2021/07/27 14:48:38;;;;;;;6.43;3.40;;;;;;;;;;5033642;28;20163;-77
2021/07/27 14:51:04;;;;;;;4.80;3.55;;;;;;;;;;5033020;28;20097;-76
2021/07/27 14:53:30;;;;;;;6.63;3.95;;;;;;;;;;5043607;28;20041;-76
2021/07/27 14:55:56;;;;;;;4.53;3.10;;;;;;;;;;5053166;28;20438;-77
2021/07/27 14:58:22;;;;;;;7.00;3.40;;;;;;;;;;5042915;28;20029;-77
2021/07/27 15:00:48;;;;;;;5.30;3.88;;;;;;;;;;5032688;28;20032;-77
2021/07/27 15:03:14;;;;;;;4.95;3.63;;;;;;;;;;5041408;28;20100;-76
2021/07/27 15:05:40;;;;;;;5.57;4.13;;;;;;;;;;5052733;28;20025;-76
2021/07/27 15:08:06;;;;;;;4.30;3.70;;;;;;;;;;5043670;28;20441;-77
2021/07/27 15:10:32;;;;;;;7.45;3.80;;;;;;;;;;5032324;28;20045;-77
2021/07/27 15:12:58;;;;;;;4.47;3.47;;;;;;;;;;5039186;28;20404;-78
2021/07/27 15:15:24;;;;;;;5.40;3.67;;;;;;;;;;5040300;28;20034;-77
2021/07/27 15:17:50;;;;;;;3.90;3.50;;;;;;;;;;5032553;28;20387;-78
2021/07/27 15:20:16;;;;;;;5.70;3.30;;;;;;;;;;5031057;28;20108;-78
2021/07/27 15:22:42;;;;;;;5.53;3.58;;;;;;;;;;5034194;28;20099;-78
2021/07/27 15:25:08;;;;;;;5.30;3.55;;;;;;;;;;5031470;28;20533;-77
2021/07/27 15:27:35;;;;;;;3.80;3.05;;;;;;;;;;5035483;28;20033;-77
2021/07/27 15:30:08;;;;;;;5.88;3.70;;;;;;;;;;5052745;28;20036;-78
2021/07/27 15:32:34;;;;;;;4.55;3.70;;;;;;;;;;5050471;28;20398;-78
2021/07/27 15:35:00;;;;;;;5.15;3.00;;;;;;;;;;5033341;28;20028;-78
2021/07/27 15:37:26;;;;;;;5.30;3.50;;;;;;;;;;5034728;28;20025;-77
2021/07/27 15:39:52;;;;;;;4.80;3.47;;;;;;;;;;5033860;28;20044;-78
2021/07/27 15:42:18;;;;;;;5.10;3.00;;;;;;;;;;5041394;28;20077;-78
2021/07/27 15:44:46;;;;;;;11.32;3.58;;;;;;;;;;5049051;28;20621;-78
2021/07/27 15:47:12;;;;;;;5.53;3.58;;;;;;;;;;5033712;28;20039;-77
2021/07/27 15:49:38;;;;;;;4.13;3.28;;;;;;;;;;5014977;28;20033;-78
2021/07/27 15:52:04;;;;;;;9.00;3.67;;;;;;;;;;5015844;28;20038;-78
2021/07/27 15:54:30;;;;;;;10.25;3.20;;;;;;;;;;5014335;28;20127;-79
2021/07/27 15:56:56;;;;;;;4.35;3.47;;;;;;;;;;5017607;28;20204;-77